createdAt,value
2019-01-15T00:00:44.585Z,98236.30
2019-01-15T00:03:13.962Z,98248.78
2019-01-15T00:05:43.406Z,98247.77
2019-01-15T00:08:13.894Z,98254.47
2019-01-15T00:10:43.474Z,98261.60
2019-01-15T00:13:12.882Z,98271.54
2019-01-15T00:15:42.472Z,98257.29
2019-01-15T00:18:12.099Z,98268.75
2019-01-15T00:20:41.601Z,98272.30
2019-01-15T00:23:11.028Z,98281.75
2019-01-15T00:25:40.429Z,98264.28
2019-01-15T00:28:09.910Z,98280.91
2019-01-15T00:30:39.539Z,98286.75
2019-01-15T00:33:09.405Z,98289.83
2019-01-15T00:35:39.874Z,98305.75
2019-01-15T00:38:09.534Z,98314.91
2019-01-15T00:40:39.019Z,98312.36
2019-01-15T00:43:08.407Z,98327.97
2019-01-15T00:45:37.846Z,98327.66
2019-01-15T00:48:07.484Z,98330.81
2019-01-15T00:50:36.964Z,98325.43
2019-01-15T00:53:06.519Z,98335.73
2019-01-15T00:55:35.914Z,98315.81
2019-01-15T00:58:05.653Z,98325.97
2019-01-15T01:00:35.207Z,98313.13
2019-01-15T01:03:04.883Z,98329.41
2019-01-15T01:05:34.359Z,98324.82
2019-01-15T01:08:04.100Z,98331.50
2019-01-15T01:10:33.483Z,98338.20
2019-01-15T01:13:03.233Z,98338.42
2019-01-15T01:15:32.759Z,98340.07
2019-01-15T01:18:02.195Z,98338.69
2019-01-15T01:20:32.974Z,98336.14
2019-01-15T01:23:02.680Z,98339.97
2019-01-15T01:25:32.170Z,98325.13
2019-01-15T01:28:01.585Z,98331.66
2019-01-15T01:30:31.037Z,98326.52
2019-01-15T01:33:00.675Z,98309.90
2019-01-15T01:35:30.156Z,98312.67
2019-01-15T01:37:59.603Z,98321.48
2019-01-15T01:40:28.980Z,98312.03
2019-01-15T01:42:58.507Z,98316.11
2019-01-15T01:45:27.974Z,98319.34
2019-01-15T01:47:57.474Z,98328.99
2019-01-15T01:50:27.647Z,98323.00
2019-01-15T01:52:57.629Z,98315.86
2019-01-15T01:55:27.837Z,98312.98
2019-01-15T01:57:57.345Z,98318.52
2019-01-15T02:00:26.894Z,98312.06
2019-01-15T02:02:56.309Z,98315.17
2019-01-15T02:05:25.772Z,98306.41
2019-01-15T02:07:55.305Z,98317.87
2019-01-15T02:10:24.827Z,98314.71
2019-01-15T02:12:54.251Z,98312.02
2019-01-15T02:15:25.475Z,98313.33
2019-01-15T02:17:55.156Z,98315.17
2019-01-15T02:20:24.665Z,98322.50
2019-01-15T02:22:54.267Z,98317.96
2019-01-15T02:25:23.759Z,98333.67
2019-01-15T02:27:54.965Z,98334.34
2019-01-15T02:30:26.602Z,98333.23
2019-01-15T02:32:56.087Z,98326.80
2019-01-15T02:35:26.097Z,98325.48
2019-01-15T02:37:55.546Z,98327.18
2019-01-15T02:40:24.933Z,98333.46
2019-01-15T02:42:54.429Z,98329.55
2019-01-15T02:45:23.952Z,98329.30
2019-01-15T02:47:53.363Z,98324.34
2019-01-15T02:50:23.116Z,98316.66
2019-01-15T02:52:52.673Z,98320.51
2019-01-15T02:55:22.168Z,98313.52
2019-01-15T02:57:51.572Z,98322.06
2019-01-15T03:00:22.974Z,98333.16
2019-01-15T03:02:52.972Z,98329.38
2019-01-15T03:05:22.546Z,98330.14
2019-01-15T03:07:52.172Z,98321.67
2019-01-15T03:10:22.496Z,98332.20
2019-01-15T03:12:56.981Z,98335.08
2019-01-15T03:15:24.902Z,98342.41
2019-01-15T03:17:54.932Z,98351.20
2019-01-15T03:20:24.447Z,98349.70
2019-01-15T03:22:53.819Z,98359.55
2019-01-15T03:25:23.253Z,98354.95
2019-01-15T03:27:52.729Z,98361.92
2019-01-15T03:30:24.299Z,98362.51
2019-01-15T03:32:54.042Z,98366.35
2019-01-15T03:35:24.817Z,98372.52
2019-01-15T03:37:54.427Z,98374.33
2019-01-15T03:40:26.091Z,98375.90
2019-01-15T03:43:03.010Z,98377.66
2019-01-15T03:45:27.046Z,98370.30
2019-01-15T03:47:56.489Z,98363.95
2019-01-15T03:50:25.875Z,98369.55
2019-01-15T03:52:55.355Z,98357.50
2019-01-15T03:55:25.109Z,98360.69
2019-01-15T03:57:54.494Z,98374.17
2019-01-15T04:00:25.481Z,98369.05
2019-01-15T04:02:56.076Z,98378.69
2019-01-15T04:05:25.549Z,98380.75
2019-01-15T04:07:58.962Z,98385.14
2019-01-15T04:10:28.879Z,98383.70
2019-01-15T04:12:58.484Z,98387.05
2019-01-15T04:15:28.037Z,98394.23
2019-01-15T04:17:57.511Z,98398.26
2019-01-15T04:20:26.930Z,98403.14
2019-01-15T04:22:56.538Z,98416.49
2019-01-15T04:25:25.971Z,98412.73
2019-01-15T04:27:55.472Z,98426.12
2019-01-15T04:30:25.283Z,98433.30
2019-01-15T04:32:54.729Z,98431.39
2019-01-15T04:35:24.348Z,98437.20
2019-01-15T04:37:53.860Z,98442.65
2019-01-15T04:40:23.616Z,98451.19
2019-01-15T04:42:53.244Z,98451.03
2019-01-15T04:45:24.362Z,98464.52
2019-01-15T04:47:54.967Z,98465.63
2019-01-15T04:50:24.618Z,98464.53
2019-01-15T04:53:03.578Z,98469.14
2019-01-15T04:55:34.258Z,98463.86
2019-01-15T04:58:03.767Z,98460.54
2019-01-15T05:00:33.314Z,98456.05
2019-01-15T05:03:07.502Z,98466.59
2019-01-15T05:05:37.327Z,98463.20
2019-01-15T05:08:06.881Z,98470.39
2019-01-15T05:10:36.299Z,98478.98
2019-01-15T05:13:06.488Z,98470.56
2019-01-15T05:15:35.975Z,98483.86
2019-01-15T05:18:05.618Z,98477.16
2019-01-15T05:20:35.144Z,98481.49
2019-01-15T05:23:04.734Z,98483.45
2019-01-15T05:25:34.257Z,98486.06
2019-01-15T05:28:07.079Z,98490.66
2019-01-15T05:30:36.468Z,98489.36
2019-01-15T05:33:06.007Z,98499.14
2019-01-15T05:35:36.023Z,98502.14
2019-01-15T05:38:05.517Z,98497.33
2019-01-15T05:40:34.925Z,98508.66
2019-01-15T05:43:04.577Z,98508.27
2019-01-15T05:45:36.574Z,98510.24
2019-01-15T05:48:22.895Z,98508.40
2019-01-15T05:50:57.428Z,98511.61
2019-01-15T05:53:27.001Z,98527.19
2019-01-15T05:55:56.508Z,98519.55
2019-01-15T05:58:25.894Z,98518.40
2019-01-15T06:00:55.428Z,98523.84
2019-01-15T06:03:24.903Z,98535.05
2019-01-15T06:05:54.386Z,98528.29
2019-01-15T06:08:23.825Z,98530.61
2019-01-15T06:10:53.212Z,98523.26
2019-01-15T06:13:22.753Z,98526.83
2019-01-15T06:15:52.302Z,98533.39
2019-01-15T06:18:21.704Z,98530.28
2019-01-15T06:20:52.735Z,98542.97
2019-01-15T06:23:22.279Z,98550.34
2019-01-15T06:25:51.679Z,98556.83
2019-01-15T06:28:21.170Z,98551.39
2019-01-15T06:30:50.922Z,98545.67
2019-01-15T06:33:20.333Z,98555.63
2019-01-15T06:35:49.758Z,98559.09
2019-01-15T06:38:19.343Z,98563.64
2019-01-15T06:40:48.841Z,98560.84
2019-01-15T06:43:18.266Z,98578.24
2019-01-15T06:45:47.724Z,98578.24
2019-01-15T06:48:17.241Z,98592.16
2019-01-15T06:50:47.917Z,98598.89
2019-01-15T06:53:17.369Z,98606.95
2019-01-15T06:55:46.768Z,98608.28
2019-01-15T06:58:16.655Z,98613.02
2019-01-15T07:00:46.502Z,98623.59
2019-01-15T07:03:15.942Z,98628.16
2019-01-15T07:05:45.557Z,98623.61
2019-01-15T07:08:15.338Z,98624.89
2019-01-15T07:10:45.197Z,98632.80
2019-01-15T07:13:14.909Z,98628.37
2019-01-15T07:15:44.570Z,98630.19
2019-01-15T07:18:14.040Z,98647.44
2019-01-15T07:20:43.797Z,98637.69
2019-01-15T07:23:16.880Z,98652.66
2019-01-15T07:25:46.443Z,98652.66
2019-01-15T07:28:15.894Z,98655.09
2019-01-15T07:30:51.256Z,98660.50
2019-01-15T07:33:25.470Z,98666.56
2019-01-15T07:35:55.723Z,98666.63
2019-01-15T07:38:25.248Z,98693.94
2019-01-15T07:40:54.688Z,98670.47
2019-01-15T07:43:24.211Z,98686.33
2019-01-15T07:45:53.621Z,98660.05
2019-01-15T07:48:23.153Z,98680.97
2019-01-15T07:50:52.748Z,98670.02
2019-01-15T07:53:22.161Z,98666.81
2019-01-15T07:55:51.552Z,98663.50
2019-01-15T07:58:21.260Z,98655.98
2019-01-15T08:00:50.760Z,98668.38
2019-01-15T08:03:20.176Z,98667.65
2019-01-15T08:05:50.042Z,98665.31
2019-01-15T08:08:19.559Z,98672.41
2019-01-15T08:10:49.168Z,98685.62
2019-01-15T08:13:18.733Z,98682.04
2019-01-15T08:15:48.154Z,98667.88
2019-01-15T08:18:17.663Z,98666.09
2019-01-15T08:20:47.375Z,98685.31
2019-01-15T08:23:16.824Z,98680.02
2019-01-15T08:25:47.087Z,98686.59
2019-01-15T08:28:16.501Z,98695.17
2019-01-15T08:30:45.943Z,98711.91
2019-01-15T08:33:15.451Z,98702.16
2019-01-15T08:35:45.002Z,98714.87
2019-01-15T08:38:14.417Z,98724.14
2019-01-15T08:40:43.829Z,98715.69
2019-01-15T08:43:13.550Z,98718.50
2019-01-15T08:45:43.041Z,98732.53
2019-01-15T08:48:17.474Z,98714.58
2019-01-15T08:50:48.508Z,98729.47
2019-01-15T08:53:21.360Z,98742.72
2019-01-15T08:55:52.583Z,98730.48
2019-01-15T08:58:21.974Z,98729.76
2019-01-15T09:00:51.442Z,98718.36
2019-01-15T09:03:20.962Z,98714.13
2019-01-15T09:05:50.362Z,98729.14
2019-01-15T09:08:20.059Z,98717.45
2019-01-15T09:10:49.577Z,98714.96
2019-01-15T09:13:18.965Z,98716.59
2019-01-15T09:15:48.556Z,98724.73
2019-01-15T09:18:18.174Z,98723.30
2019-01-15T09:20:47.690Z,98718.03
2019-01-15T09:23:17.131Z,98724.81
2019-01-15T09:25:46.524Z,98720.02
2019-01-15T09:28:16.423Z,98728.48
2019-01-15T09:30:45.958Z,98732.10
2019-01-15T09:33:15.367Z,98720.89
2019-01-15T09:35:44.803Z,98713.44
2019-01-15T09:38:14.596Z,98722.75
2019-01-15T09:40:44.127Z,98718.94
2019-01-15T09:43:13.520Z,98709.00
2019-01-15T09:45:43.049Z,98716.61
2019-01-15T09:48:17.999Z,98712.73
2019-01-15T09:50:47.564Z,98706.19
2019-01-15T09:53:17.248Z,98705.22
2019-01-15T09:55:46.774Z,98705.31
2019-01-15T09:58:16.359Z,98745.70
2019-01-15T10:00:45.755Z,98694.69
2019-01-15T10:03:15.248Z,98703.56
2019-01-15T10:05:44.973Z,98694.33
2019-01-15T10:08:14.406Z,98698.86
2019-01-15T10:10:43.784Z,98701.23
2019-01-15T10:13:13.311Z,98707.95
2019-01-15T10:15:42.913Z,98692.33
2019-01-15T10:18:12.307Z,98700.64
2019-01-15T10:20:41.856Z,98692.41
2019-01-15T10:23:15.858Z,98694.56
2019-01-15T10:25:46.919Z,98699.93
2019-01-15T10:28:16.758Z,98698.02
2019-01-15T10:31:37.593Z,98726.25
2019-01-15T10:34:17.758Z,98694.62
2019-01-15T10:36:45.445Z,98715.94
2019-01-15T10:39:14.987Z,98693.57
2019-01-15T10:41:44.468Z,98703.58
2019-01-15T10:44:14.088Z,98727.53
2019-01-15T10:46:43.544Z,98701.30
2019-01-15T10:49:13.042Z,98710.32
2019-01-15T10:51:42.562Z,98699.33
2019-01-15T10:54:11.958Z,98699.02
2019-01-15T10:56:41.369Z,98700.78
2019-01-15T10:59:10.934Z,98685.09
2019-01-15T11:01:40.410Z,98680.92
2019-01-15T11:04:09.871Z,98687.02
2019-01-15T11:06:39.316Z,98697.69
2019-01-15T11:09:10.200Z,98684.09
2019-01-15T11:11:39.703Z,98700.92
2019-01-15T11:14:11.516Z,98705.73
2019-01-15T11:16:40.906Z,98709.66
2019-01-15T11:19:10.382Z,98713.39
2019-01-15T11:21:40.033Z,98704.70
2019-01-15T11:24:09.470Z,98700.64
2019-01-15T11:26:38.866Z,98717.03
2019-01-15T11:29:08.992Z,98713.47
2019-01-15T11:31:38.476Z,98719.48
2019-01-15T11:34:07.989Z,98721.56
2019-01-15T11:36:37.416Z,98727.07
2019-01-15T11:39:10.339Z,98724.11
2019-01-15T11:41:39.931Z,98717.64
2019-01-15T11:44:09.385Z,98745.01
2019-01-15T11:46:38.854Z,98740.59
2019-01-15T11:49:08.254Z,98762.59
2019-01-15T11:51:37.937Z,98751.25
2019-01-15T11:54:07.562Z,98755.70
2019-01-15T11:56:37.055Z,98760.72
2019-01-15T11:59:06.680Z,98764.56
2019-01-15T12:01:41.482Z,98804.61
2019-01-15T12:04:38.879Z,98789.16
2019-01-15T12:07:26.020Z,98780.11
2019-01-15T12:10:11.707Z,98791.10
2019-01-15T12:13:00.035Z,98792.83
2019-01-15T12:15:47.093Z,98775.78
2019-01-15T12:18:33.540Z,98785.41
2019-01-15T12:21:32.462Z,98779.27
2019-01-15T12:24:26.376Z,98785.05
2019-01-15T12:27:09.472Z,98793.78
2019-01-15T12:30:00.830Z,98804.79
2019-01-15T12:32:38.889Z,98819.16
2019-01-15T12:35:30.672Z,98797.70
2019-01-15T12:38:37.425Z,98808.54
2019-01-15T12:41:43.690Z,98803.84
2019-01-15T12:44:43.288Z,98803.35
2019-01-15T12:47:31.690Z,98829.39
2019-01-15T12:50:25.838Z,98826.16
2019-01-15T12:53:23.159Z,98827.23
2019-01-15T12:56:10.094Z,98832.47
2019-01-15T12:58:56.880Z,98833.81
2019-01-15T13:01:39.460Z,98823.55
2019-01-15T13:04:18.699Z,98825.48
2019-01-15T13:07:06.902Z,98838.94
2019-01-15T13:09:58.103Z,98833.89
2019-01-15T13:12:55.814Z,98839.17
2019-01-15T13:15:47.226Z,98836.44
2019-01-15T13:18:35.472Z,98835.84
2019-01-15T13:21:22.508Z,98834.02
2019-01-15T13:24:20.598Z,98861.44
2019-01-15T13:27:09.196Z,98852.17
2019-01-15T13:29:57.702Z,98847.47
2019-01-15T13:32:33.090Z,98861.83
2019-01-15T13:35:17.693Z,98870.18
2019-01-15T13:38:12.188Z,98851.56
2019-01-15T13:40:59.032Z,98865.50
2019-01-15T13:43:46.134Z,98869.66
2019-01-15T13:46:25.291Z,98872.59
2019-01-15T13:49:16.489Z,98890.88
2019-01-15T13:52:07.447Z,98876.72
2019-01-15T13:54:54.363Z,98873.17
2019-01-15T13:57:45.525Z,98893.91
2019-01-15T14:00:33.827Z,98892.41
2019-01-15T14:03:34.086Z,98900.47
2019-01-15T14:06:34.709Z,98898.45
2019-01-15T14:09:20.939Z,98902.65
2019-01-15T14:12:14.894Z,98892.08
2019-01-15T14:15:01.793Z,98922.79
2019-01-15T14:17:47.903Z,98909.99
2019-01-15T14:20:34.997Z,98924.73
2019-01-15T14:23:23.798Z,98908.09
2019-01-15T14:26:01.896Z,98918.27
2019-01-15T14:28:43.462Z,98931.59
2019-01-15T14:31:34.701Z,98945.03
2019-01-15T14:34:25.899Z,98937.44
2019-01-15T14:37:20.381Z,98948.22
2019-01-15T14:40:07.394Z,98921.61
2019-01-15T14:42:55.370Z,98951.73
2019-01-15T14:45:46.489Z,98947.27
2019-01-15T14:48:33.505Z,98952.93
2019-01-15T14:51:24.815Z,98951.73
2019-01-15T14:54:13.172Z,98963.69
2019-01-15T14:57:04.359Z,98965.83
2019-01-15T14:59:57.665Z,98952.41
2019-01-15T15:02:49.206Z,98972.84
2019-01-15T15:05:31.872Z,98969.16
2019-01-15T15:08:22.742Z,98960.00
2019-01-15T15:11:12.197Z,98973.99
2019-01-15T15:13:54.008Z,98983.71
2019-01-15T15:16:44.871Z,98983.92
2019-01-15T15:19:31.870Z,98986.68
2019-01-15T15:22:19.019Z,99000.30
2019-01-15T15:25:16.512Z,98999.55
2019-01-15T15:28:05.032Z,99012.84
2019-01-15T15:31:08.308Z,99013.75
2019-01-15T15:33:59.430Z,99010.55
2019-01-15T15:36:50.308Z,99019.06
2019-01-15T15:39:37.637Z,99019.74
2019-01-15T15:42:34.815Z,99033.53
2019-01-15T15:45:35.969Z,99030.12
2019-01-15T15:48:36.346Z,99041.52
2019-01-15T15:51:32.738Z,99073.36
2019-01-15T15:54:21.141Z,99053.86
2019-01-15T15:57:18.851Z,99058.41
2019-01-15T16:00:07.201Z,99059.41
2019-01-15T16:03:01.813Z,99069.84
2019-01-15T16:05:41.897Z,99075.53
2019-01-15T16:08:33.351Z,99084.84
2019-01-15T16:11:33.586Z,99095.81
2019-01-15T16:14:16.463Z,99090.95
2019-01-15T16:17:10.409Z,99098.34
2019-01-15T16:19:57.032Z,99090.70
2019-01-15T16:22:45.457Z,99096.88
2019-01-15T16:25:32.612Z,99110.36
2019-01-15T16:28:20.935Z,99102.48
2019-01-15T16:31:08.123Z,99105.20
2019-01-15T16:34:05.277Z,99112.19
2019-01-15T16:36:46.963Z,99109.51
2019-01-15T16:39:35.343Z,99119.47
2019-01-15T16:42:32.922Z,99126.81
2019-01-15T16:45:14.595Z,99118.80
2019-01-15T16:48:01.780Z,99135.77
2019-01-15T16:51:05.500Z,99141.48
2019-01-15T16:54:06.088Z,99141.67
2019-01-15T16:57:00.483Z,99142.27
2019-01-15T16:59:57.430Z,99154.78
2019-01-15T17:02:43.849Z,99159.64
2019-01-15T17:05:31.138Z,99168.36
2019-01-15T17:08:17.898Z,99174.92
2019-01-15T17:10:54.259Z,99180.16
2019-01-15T17:13:42.325Z,99185.86
2019-01-15T17:16:33.842Z,99189.79
2019-01-15T17:19:23.878Z,99180.25
2019-01-15T17:22:04.581Z,99197.04
2019-01-15T17:24:53.014Z,99207.30
2019-01-15T17:27:41.797Z,99208.98
2019-01-15T17:30:31.026Z,99212.50
2019-01-15T17:33:31.571Z,99217.35
2019-01-15T17:36:18.153Z,99219.70
2019-01-15T17:39:04.392Z,99227.01
2019-01-15T17:42:04.800Z,99230.81
2019-01-15T17:44:51.820Z,99238.72
2019-01-15T17:47:38.662Z,99251.28
2019-01-15T17:50:36.332Z,99249.66
2019-01-15T17:53:27.400Z,99252.75
2019-01-15T17:56:24.455Z,99264.91
2019-01-15T17:59:10.220Z,99268.39
2019-01-15T18:02:09.696Z,99265.00
2019-01-15T18:05:04.013Z,99272.41
2019-01-15T18:07:51.269Z,99279.31
2019-01-15T18:10:33.547Z,99285.83
2019-01-15T18:13:22.560Z,99292.27
2019-01-15T18:16:09.228Z,99294.81
2019-01-15T18:18:56.925Z,99306.02
2019-01-15T18:21:46.142Z,99322.87
2019-01-15T18:24:37.983Z,99325.89
2019-01-15T18:27:32.790Z,99337.56
2019-01-15T18:30:39.495Z,99334.16
2019-01-15T18:33:31.252Z,99342.82
2019-01-15T18:36:31.888Z,99350.61
2019-01-15T18:39:24.721Z,99346.25
2019-01-15T18:42:15.570Z,99351.98
2019-01-15T18:45:02.558Z,99360.20
2019-01-15T18:47:56.684Z,99363.22
2019-01-15T18:50:43.917Z,99367.52
2019-01-15T18:53:32.410Z,99371.88
2019-01-15T18:56:19.728Z,99385.80
2019-01-15T18:59:08.613Z,99388.42
2019-01-15T19:02:02.956Z,99398.87
2019-01-15T19:04:47.783Z,99399.73
2019-01-15T19:07:46.105Z,99408.44
2019-01-15T19:10:46.542Z,99402.41
2019-01-15T19:13:32.281Z,99412.36
2019-01-15T19:16:26.671Z,99419.72
2019-01-15T19:19:16.931Z,99424.45
2019-01-15T19:22:05.525Z,99433.55
2019-01-15T19:24:59.101Z,99435.24
2019-01-15T19:27:46.435Z,99443.53
2019-01-15T19:30:44.542Z,99453.50
2019-01-15T19:33:31.341Z,99453.95
2019-01-15T19:36:13.235Z,99463.52
2019-01-15T19:38:54.863Z,99459.22
2019-01-15T19:41:52.220Z,99463.55
2019-01-15T19:44:55.951Z,99458.36
2019-01-15T19:47:39.806Z,99452.31
2019-01-15T19:50:28.058Z,99457.46
2019-01-15T19:53:31.501Z,99466.08
2019-01-15T19:56:31.888Z,99471.24
2019-01-15T19:59:26.164Z,99470.30
2019-01-15T20:02:06.228Z,99466.39
2019-01-15T20:05:03.324Z,99460.31
2019-01-15T20:08:00.561Z,99465.89
2019-01-15T20:10:47.697Z,99461.95
2019-01-15T20:13:38.704Z,99474.95
2019-01-15T20:16:25.525Z,99474.53
2019-01-15T20:19:19.686Z,99479.30
2019-01-15T20:22:00.657Z,99480.63
2019-01-15T20:24:55.319Z,99482.70
2019-01-15T20:27:55.903Z,99483.14
2019-01-15T20:30:38.786Z,99488.31
2019-01-15T20:33:24.932Z,99493.50
2019-01-15T20:36:16.416Z,99495.66
2019-01-15T20:38:57.259Z,99502.14
2019-01-15T20:41:44.355Z,99494.41
2019-01-15T20:44:31.465Z,99510.84
2019-01-15T20:47:10.624Z,99514.38
2019-01-15T20:50:08.166Z,99519.97
2019-01-15T20:52:59.135Z,99515.22
2019-01-15T20:56:02.467Z,99513.02
2019-01-15T20:58:49.094Z,99516.89
2019-01-15T21:01:46.455Z,99520.83
2019-01-15T21:04:33.167Z,99525.16
2019-01-15T21:07:33.400Z,99533.83
2019-01-15T21:10:20.710Z,99532.52
2019-01-15T21:13:16.809Z,99529.51
2019-01-15T21:16:03.518Z,99528.28
2019-01-15T21:18:51.887Z,99517.52
2019-01-15T21:21:49.555Z,99525.71
2019-01-15T21:24:43.841Z,99523.95
2019-01-15T21:27:30.633Z,99525.63
2019-01-15T21:30:17.310Z,99532.00
2019-01-15T21:33:12.989Z,99531.04
2019-01-15T21:36:07.175Z,99529.30
2019-01-15T21:38:58.389Z,99530.59
2019-01-15T21:41:37.977Z,99511.64
2019-01-15T21:44:35.097Z,99537.48
2019-01-15T21:47:18.692Z,99528.86
2019-01-15T21:50:05.898Z,99540.12
2019-01-15T21:52:57.206Z,99545.70
2019-01-15T21:55:38.031Z,99552.62
2019-01-15T21:58:14.063Z,99547.78
2019-01-15T22:00:56.398Z,99549.94
2019-01-15T22:03:47.326Z,99552.55
2019-01-15T22:06:34.382Z,99553.41
2019-01-15T22:09:33.062Z,99550.81
2019-01-15T22:12:33.607Z,99546.46
2019-01-15T22:15:40.290Z,99549.02
2019-01-15T22:18:21.104Z,99549.02
2019-01-15T22:21:15.084Z,99553.80
2019-01-15T22:24:21.522Z,99553.33
2019-01-15T22:27:12.933Z,99540.34
2019-01-15T22:30:02.499Z,99546.86
2019-01-15T22:33:03.177Z,99540.34
2019-01-15T22:35:50.169Z,99542.48
2019-01-15T22:38:36.830Z,99543.36
2019-01-15T22:41:23.993Z,99542.55
2019-01-15T22:44:11.291Z,99535.17
2019-01-15T22:47:00.793Z,99532.62
2019-01-15T22:49:54.683Z,99540.81
2019-01-15T22:53:00.977Z,99546.42
2019-01-15T22:55:43.961Z,99552.84
2019-01-15T22:58:21.267Z,99558.84
2019-01-15T23:01:10.484Z,99564.98
2019-01-15T23:03:57.826Z,99559.81
2019-01-15T23:06:44.934Z,99567.69
2019-01-15T23:09:51.713Z,99572.52
2019-01-15T23:12:40.044Z,99573.91
2019-01-15T23:15:31.902Z,99568.31
2019-01-15T23:18:27.320Z,99564.47
2019-01-15T23:21:18.759Z,99567.56
2019-01-15T23:24:15.652Z,99556.85
2019-01-15T23:27:13.491Z,99558.15
2019-01-15T23:30:02.820Z,99555.98
2019-01-15T23:32:50.385Z,99556.83
2019-01-15T23:35:56.620Z,99559.34
2019-01-15T23:38:54.053Z,99565.80
2019-01-15T23:41:45.400Z,99578.70
2019-01-15T23:44:33.755Z,99578.72
2019-01-15T23:47:20.741Z,99590.80
2019-01-15T23:50:12.087Z,99589.94
2019-01-15T23:52:52.110Z,99593.41
2019-01-15T23:55:49.631Z,99592.94
2019-01-15T23:58:36.736Z,99595.47
